createdAt,value
2023-04-15T00:01:10.019Z,39.50
2023-04-15T00:03:36.975Z,37.30
2023-04-15T00:06:03.946Z,36.42
2023-04-15T00:08:31.021Z,35.08
2023-04-15T00:11:02.544Z,29.10
2023-04-15T00:13:29.554Z,28.23
2023-04-15T00:15:56.298Z,23.58
2023-04-15T00:18:23.732Z,18.67
2023-04-15T00:20:50.456Z,15.38
2023-04-15T00:23:17.161Z,13.77
2023-04-15T00:25:43.914Z,14.55
2023-04-15T00:28:10.681Z,13.27
2023-04-15T00:30:37.419Z,14.68
2023-04-15T00:33:04.097Z,15.48
2023-04-15T00:35:32.765Z,8.85
2023-04-15T00:37:59.879Z,13.30
2023-04-15T00:40:27.735Z,9.15
2023-04-15T00:42:54.526Z,10.80
2023-04-15T00:45:21.272Z,14.70
2023-04-15T00:47:48.184Z,10.88
2023-04-15T00:50:15.013Z,9.15
2023-04-15T00:52:41.885Z,11.52
2023-04-15T00:55:09.708Z,9.60
2023-04-15T00:57:36.893Z,9.77
2023-04-15T01:00:13.671Z,9.50
2023-04-15T01:02:40.944Z,10.93
2023-04-15T01:05:08.515Z,7.93
2023-04-15T01:07:35.321Z,9.50
2023-04-15T01:10:05.655Z,10.25
2023-04-15T01:12:34.263Z,9.57
2023-04-15T01:15:02.224Z,6.72
2023-04-15T01:17:29.426Z,8.90
2023-04-15T01:19:59.607Z,9.88
2023-04-15T01:22:27.629Z,8.45
2023-04-15T01:25:02.235Z,10.40
2023-04-15T01:27:31.238Z,9.40
2023-04-15T01:29:58.374Z,8.85
2023-04-15T01:32:25.271Z,11.20
2023-04-15T01:34:52.089Z,9.07
2023-04-15T01:37:18.795Z,12.10
2023-04-15T01:39:46.301Z,10.50
2023-04-15T01:42:13.074Z,10.43
2023-04-15T01:44:39.866Z,10.25
2023-04-15T01:47:06.917Z,6.43
2023-04-15T01:49:33.769Z,10.50
2023-04-15T01:52:00.784Z,8.63
2023-04-15T01:54:27.565Z,14.35
2023-04-15T01:56:54.280Z,8.57
2023-04-15T01:59:21.196Z,7.13
2023-04-15T02:01:47.938Z,10.65
2023-04-15T02:04:17.194Z,9.10
2023-04-15T02:06:44.166Z,9.80
2023-04-15T02:09:12.298Z,10.32
2023-04-15T02:11:39.250Z,6.50
2023-04-15T02:14:06.296Z,8.85
2023-04-15T02:16:33.783Z,7.55
2023-04-15T02:19:01.338Z,9.95
2023-04-15T02:21:28.154Z,11.20
2023-04-15T02:23:54.869Z,8.07
2023-04-15T02:26:22.363Z,10.23
2023-04-15T02:28:51.314Z,14.32
2023-04-15T02:31:18.345Z,14.93
2023-04-15T02:33:45.322Z,7.10
2023-04-15T02:36:12.384Z,7.75
2023-04-15T02:38:42.232Z,12.55
2023-04-15T02:41:12.356Z,9.55
2023-04-15T02:43:39.914Z,17.20
2023-04-15T02:46:07.816Z,15.60
2023-04-15T02:48:34.540Z,9.63
2023-04-15T02:51:21.312Z,10.23
2023-04-15T02:53:48.907Z,10.23
2023-04-15T02:56:17.098Z,8.02
2023-04-15T02:58:45.130Z,12.82
2023-04-15T03:01:12.092Z,6.50
2023-04-15T03:03:39.783Z,8.65
2023-04-15T03:06:06.935Z,13.50
2023-04-15T03:08:34.799Z,10.52
2023-04-15T03:11:02.588Z,9.75
2023-04-15T03:13:29.247Z,8.80
2023-04-15T03:15:57.752Z,11.93
2023-04-15T03:18:24.631Z,10.45
2023-04-15T03:20:51.538Z,10.18
2023-04-15T03:23:18.712Z,9.50
2023-04-15T03:25:46.129Z,10.93
2023-04-15T03:28:13.450Z,7.80
2023-04-15T03:30:40.185Z,11.50
2023-04-15T03:33:07.096Z,12.45
2023-04-15T03:35:34.281Z,15.20
2023-04-15T03:38:01.000Z,9.13
2023-04-15T03:40:27.750Z,10.50
2023-04-15T03:42:54.489Z,10.02
2023-04-15T03:45:21.198Z,6.78
2023-04-15T03:47:48.081Z,12.32
2023-04-15T03:50:14.869Z,9.25
2023-04-15T03:52:41.561Z,9.43
2023-04-15T03:55:09.652Z,8.32
2023-04-15T03:57:38.873Z,9.80
2023-04-15T04:00:07.181Z,10.50
2023-04-15T04:02:39.146Z,9.00
2023-04-15T04:05:06.287Z,10.02
2023-04-15T04:07:33.059Z,9.50
2023-04-15T04:09:59.769Z,8.55
2023-04-15T04:12:26.476Z,9.60
2023-04-15T04:14:53.219Z,8.48
2023-04-15T04:17:19.958Z,9.38
2023-04-15T04:19:50.220Z,8.48
2023-04-15T04:22:16.961Z,9.00
2023-04-15T04:24:43.666Z,8.98
2023-04-15T04:27:10.725Z,8.98
2023-04-15T04:29:37.418Z,13.95
2023-04-15T04:32:04.497Z,8.73
2023-04-15T04:34:32.450Z,9.32
2023-04-15T04:36:59.152Z,9.27
2023-04-15T04:39:25.973Z,7.53
2023-04-15T04:41:52.683Z,8.68
2023-04-15T04:44:19.436Z,7.95
2023-04-15T04:46:46.197Z,9.45
2023-04-15T04:49:12.937Z,9.95
2023-04-15T04:51:39.628Z,10.70
2023-04-15T04:54:06.276Z,10.65
2023-04-15T04:56:34.311Z,8.82
2023-04-15T04:59:01.370Z,12.27
2023-04-15T05:01:28.570Z,10.68
2023-04-15T05:03:56.164Z,11.05
2023-04-15T05:06:23.037Z,9.05
2023-04-15T05:08:49.714Z,7.78
2023-04-15T05:11:16.338Z,10.23
2023-04-15T05:13:43.071Z,11.50
2023-04-15T05:16:09.827Z,9.63
2023-04-15T05:18:36.828Z,9.07
2023-04-15T05:21:03.614Z,10.35
2023-04-15T05:23:31.817Z,13.13
2023-04-15T05:25:58.582Z,11.30
2023-04-15T05:28:25.556Z,12.85
2023-04-15T05:30:52.315Z,13.32
2023-04-15T05:33:19.072Z,8.30
2023-04-15T05:35:46.222Z,10.23
2023-04-15T05:38:13.157Z,9.52
2023-04-15T05:40:39.941Z,9.35
2023-04-15T05:43:06.702Z,10.82
2023-04-15T05:45:34.877Z,9.88
2023-04-15T05:48:01.573Z,9.85
2023-04-15T05:50:28.334Z,9.82
2023-04-15T05:52:55.937Z,9.13
2023-04-15T05:55:22.575Z,9.02
2023-04-15T05:57:49.699Z,9.27
2023-04-15T06:00:16.528Z,11.38
2023-04-15T06:02:43.452Z,13.38
2023-04-15T06:05:11.753Z,7.57
2023-04-15T06:07:39.107Z,9.32
2023-04-15T06:10:06.561Z,10.85
2023-04-15T06:12:33.328Z,9.73
2023-04-15T06:15:00.387Z,9.10
2023-04-15T06:17:27.562Z,9.70
2023-04-15T06:19:55.741Z,12.02
2023-04-15T06:22:23.834Z,14.38
2023-04-15T06:24:52.091Z,10.07
2023-04-15T06:27:19.363Z,13.27
2023-04-15T06:29:49.089Z,9.93
2023-04-15T06:32:16.201Z,11.40
2023-04-15T06:34:42.886Z,11.52
2023-04-15T06:37:11.130Z,10.80
2023-04-15T06:39:38.222Z,15.82
2023-04-15T06:42:05.029Z,10.63
2023-04-15T06:44:33.808Z,10.95
2023-04-15T06:47:01.213Z,11.43
2023-04-15T06:49:27.994Z,9.93
2023-04-15T06:51:54.757Z,10.68
2023-04-15T06:54:21.517Z,11.52
2023-04-15T06:56:48.451Z,12.73
2023-04-15T06:59:15.204Z,19.45
2023-04-15T07:02:02.330Z,12.90
2023-04-15T07:04:29.174Z,14.05
2023-04-15T07:06:58.741Z,10.77
2023-04-15T07:09:25.550Z,12.43
2023-04-15T07:11:52.420Z,13.38
2023-04-15T07:14:19.132Z,13.25
2023-04-15T07:16:46.144Z,15.93
2023-04-15T07:19:12.974Z,14.48
2023-04-15T07:21:41.795Z,12.25
2023-04-15T07:24:10.433Z,13.93
2023-04-15T07:26:37.138Z,12.15
2023-04-15T07:29:04.215Z,11.35
2023-04-15T07:31:31.312Z,14.90
2023-04-15T07:33:58.488Z,13.35
2023-04-15T07:36:25.154Z,13.88
2023-04-15T07:38:52.533Z,12.90
2023-04-15T07:41:19.306Z,14.98
2023-04-15T07:43:45.997Z,9.57
2023-04-15T07:46:12.748Z,13.27
2023-04-15T07:48:39.513Z,12.73
2023-04-15T07:51:06.723Z,12.23
2023-04-15T07:53:33.586Z,23.50
2023-04-15T07:56:00.614Z,11.45
2023-04-15T07:58:27.407Z,9.88
2023-04-15T08:01:04.601Z,10.85
2023-04-15T08:03:32.284Z,10.45
2023-04-15T08:05:59.520Z,10.05
2023-04-15T08:08:26.486Z,8.25
2023-04-15T08:10:56.030Z,8.65
2023-04-15T08:13:22.895Z,8.10
2023-04-15T08:16:14.376Z,6.82
2023-04-15T08:18:44.137Z,9.57
2023-04-15T08:21:11.726Z,7.55
2023-04-15T08:23:39.276Z,8.88
2023-04-15T08:26:06.341Z,5.90
2023-04-15T08:28:33.116Z,10.95
2023-04-15T08:30:59.933Z,7.05
2023-04-15T08:33:26.718Z,5.75
2023-04-15T08:35:53.468Z,6.63
2023-04-15T08:38:20.262Z,5.00
2023-04-15T08:40:47.222Z,9.63
2023-04-15T08:43:22.156Z,5.72
2023-04-15T08:45:51.804Z,5.03
2023-04-15T08:48:19.195Z,5.38
2023-04-15T08:50:47.585Z,6.68
2023-04-15T08:53:15.778Z,5.38
2023-04-15T08:55:47.349Z,3.92
2023-04-15T08:58:14.222Z,4.88
2023-04-15T09:00:41.990Z,5.07
2023-04-15T09:03:09.581Z,5.63
2023-04-15T09:05:37.491Z,5.18
2023-04-15T09:08:05.381Z,4.80
2023-04-15T09:10:35.485Z,5.40
2023-04-15T09:13:02.820Z,5.35
2023-04-15T09:15:32.202Z,5.20
2023-04-15T09:17:58.911Z,6.78
2023-04-15T09:20:25.620Z,5.90
2023-04-15T09:22:52.441Z,8.15
2023-04-15T09:25:22.157Z,7.85
2023-04-15T09:27:53.309Z,5.28
2023-04-15T09:30:20.030Z,5.28
2023-04-15T09:32:53.817Z,7.20
2023-04-15T09:35:25.609Z,6.90
2023-04-15T09:37:53.211Z,6.57
2023-04-15T09:40:42.899Z,5.75
2023-04-15T09:43:12.744Z,5.45
2023-04-15T09:45:46.924Z,6.43
2023-04-15T09:48:26.752Z,5.63
2023-04-15T09:50:53.991Z,6.10
2023-04-15T09:53:21.889Z,3.78
2023-04-15T09:55:54.748Z,3.72
2023-04-15T09:58:23.698Z,4.03
2023-04-15T10:00:52.079Z,4.50
2023-04-15T10:03:27.523Z,5.05
2023-04-15T10:05:57.083Z,7.45
2023-04-15T10:08:26.139Z,5.97
2023-04-15T10:10:53.407Z,5.32
2023-04-15T10:13:25.025Z,5.88
2023-04-15T10:16:03.289Z,5.03
2023-04-15T10:18:34.474Z,3.45
2023-04-15T10:21:18.683Z,3.78
2023-04-15T10:24:01.795Z,5.35
2023-04-15T10:26:36.776Z,4.70
2023-04-15T10:29:05.042Z,5.53
2023-04-15T10:31:32.016Z,7.97
2023-04-15T10:34:04.043Z,3.33
2023-04-15T10:36:31.311Z,3.05
2023-04-15T10:38:58.090Z,4.07
2023-04-15T10:41:30.005Z,4.03
2023-04-15T10:44:04.834Z,4.78
2023-04-15T10:46:44.147Z,3.35
2023-04-15T10:49:11.966Z,5.07
2023-04-15T10:51:50.999Z,3.97
2023-04-15T10:54:33.028Z,4.45
2023-04-15T10:57:06.072Z,4.80
2023-04-15T10:59:36.143Z,2.83
2023-04-15T11:02:04.442Z,3.50
2023-04-15T11:04:59.824Z,5.40
2023-04-15T11:07:51.552Z,4.65
2023-04-15T11:10:18.415Z,3.90
2023-04-15T11:12:45.929Z,2.50
2023-04-15T11:15:40.465Z,5.72
2023-04-15T11:18:14.489Z,3.53
2023-04-15T11:20:47.108Z,3.85
2023-04-15T11:23:15.982Z,2.35
2023-04-15T11:25:43.849Z,2.40
2023-04-15T11:28:12.275Z,2.47
2023-04-15T11:30:40.011Z,3.08
2023-04-15T11:33:09.152Z,3.28
2023-04-15T11:35:36.341Z,7.80
2023-04-15T11:38:14.411Z,2.80
2023-04-15T11:40:45.301Z,1.98
2023-04-15T11:43:16.030Z,3.15
2023-04-15T11:45:53.344Z,2.30
2023-04-15T11:48:22.644Z,5.78
2023-04-15T11:51:01.269Z,5.07
2023-04-15T11:53:51.197Z,35.10
2023-04-15T11:56:22.937Z,32.08
2023-04-15T11:58:58.360Z,4.78
2023-04-15T12:01:36.457Z,4.60
2023-04-15T12:04:10.997Z,3.92
2023-04-15T12:06:39.141Z,9.38
2023-04-15T12:09:25.174Z,12.18
2023-04-15T12:11:55.215Z,5.03
2023-04-15T12:14:29.770Z,10.13
2023-04-15T12:17:00.114Z,9.38
2023-04-15T12:19:34.802Z,6.43
2023-04-15T12:22:04.098Z,2.10
2023-04-15T12:24:35.906Z,5.55
2023-04-15T12:27:07.676Z,3.03
2023-04-15T12:29:36.121Z,2.28
2023-04-15T12:32:10.933Z,5.03
2023-04-15T12:34:43.325Z,2.10
2023-04-15T12:37:13.171Z,6.50
2023-04-15T12:39:41.976Z,2.30
2023-04-15T12:42:09.303Z,2.58
2023-04-15T12:44:37.121Z,3.55
2023-04-15T12:47:04.531Z,4.30
2023-04-15T12:49:32.618Z,1.85
2023-04-15T12:52:01.268Z,2.70
2023-04-15T12:54:29.088Z,5.32
2023-04-15T12:56:56.492Z,6.80
2023-04-15T12:59:24.100Z,3.08
2023-04-15T13:01:52.216Z,4.28
2023-04-15T13:04:20.628Z,2.90
2023-04-15T13:06:47.967Z,3.58
2023-04-15T13:09:15.620Z,3.13
2023-04-15T13:11:43.593Z,3.47
2023-04-15T13:14:13.913Z,3.60
2023-04-15T13:16:40.775Z,5.10
2023-04-15T13:19:07.978Z,7.38
2023-04-15T13:21:35.943Z,4.25
2023-04-15T13:24:04.060Z,3.10
2023-04-15T13:26:31.745Z,2.40
2023-04-15T13:28:59.005Z,2.45
2023-04-15T13:31:26.145Z,6.53
2023-04-15T13:33:52.991Z,3.05
2023-04-15T13:36:21.229Z,5.43
2023-04-15T13:38:50.974Z,3.00
2023-04-15T13:41:18.825Z,2.28
2023-04-15T13:43:45.653Z,3.33
2023-04-15T13:46:12.965Z,4.93
2023-04-15T13:48:39.878Z,7.47
2023-04-15T13:51:08.822Z,5.90
2023-04-15T13:53:38.771Z,2.67
2023-04-15T13:56:10.684Z,4.82
2023-04-15T13:58:38.213Z,4.97
2023-04-15T14:01:06.948Z,1.30
2023-04-15T14:03:36.430Z,1.58
2023-04-15T14:06:04.240Z,4.47
2023-04-15T14:08:32.721Z,3.25
2023-04-15T14:10:59.578Z,2.92
2023-04-15T14:13:26.374Z,1.08
2023-04-15T14:15:53.136Z,2.78
2023-04-15T14:18:20.539Z,2.78
2023-04-15T14:20:47.455Z,3.72
2023-04-15T14:23:14.353Z,1.65
2023-04-15T14:25:41.124Z,3.95
2023-04-15T14:28:08.122Z,3.75
2023-04-15T14:30:35.033Z,4.82
2023-04-15T14:33:02.343Z,5.32
2023-04-15T14:35:29.342Z,6.43
2023-04-15T14:37:57.633Z,5.60
2023-04-15T14:40:24.360Z,6.47
2023-04-15T14:42:51.584Z,8.40
2023-04-15T14:45:19.014Z,7.55
2023-04-15T14:47:46.636Z,4.40
2023-04-15T14:50:13.372Z,4.40
2023-04-15T14:52:40.204Z,5.97
2023-04-15T14:55:13.011Z,7.47
2023-04-15T14:57:42.157Z,4.93
2023-04-15T15:00:11.904Z,2.85
2023-04-15T15:02:42.082Z,1.88
2023-04-15T15:05:10.690Z,3.85
2023-04-15T15:07:39.442Z,5.50
2023-04-15T15:10:07.064Z,7.18
2023-04-15T15:12:33.915Z,6.25
2023-04-15T15:15:02.922Z,3.08
2023-04-15T15:17:31.780Z,7.13
2023-04-15T15:19:58.769Z,5.93
2023-04-15T15:22:26.223Z,6.35
2023-04-15T15:24:53.466Z,5.15
2023-04-15T15:27:20.552Z,7.90
2023-04-15T15:29:49.986Z,5.95
2023-04-15T15:32:18.138Z,5.82
2023-04-15T15:34:44.806Z,10.98
2023-04-15T15:37:11.888Z,6.18
2023-04-15T15:39:38.662Z,4.28
2023-04-15T15:42:07.305Z,6.07
2023-04-15T15:44:36.229Z,5.18
2023-04-15T15:47:03.225Z,9.38
2023-04-15T15:49:30.137Z,8.10
2023-04-15T15:51:57.045Z,12.60
2023-04-15T15:54:24.920Z,7.43
2023-04-15T15:56:51.656Z,7.25
2023-04-15T15:59:18.574Z,7.90
2023-04-15T16:01:46.519Z,5.80
2023-04-15T16:04:13.641Z,11.00
2023-04-15T16:06:40.946Z,9.25
2023-04-15T16:09:11.037Z,10.57
2023-04-15T16:11:39.476Z,5.80
2023-04-15T16:14:06.149Z,12.98
2023-04-15T16:16:36.146Z,7.95
2023-04-15T16:19:03.460Z,9.85
2023-04-15T16:21:31.479Z,11.20
2023-04-15T16:23:58.211Z,10.15
2023-04-15T16:26:25.054Z,11.48
2023-04-15T16:28:52.127Z,12.15
2023-04-15T16:31:18.869Z,16.35
2023-04-15T16:33:45.589Z,12.70
2023-04-15T16:36:12.454Z,12.48
2023-04-15T16:38:39.482Z,10.38
2023-04-15T16:41:06.257Z,7.03
2023-04-15T16:43:33.641Z,21.98
2023-04-15T16:46:00.694Z,19.33
2023-04-15T16:48:27.456Z,12.38
2023-04-15T16:50:54.264Z,15.25
2023-04-15T16:53:21.118Z,34.85
2023-04-15T16:55:48.296Z,9.27
2023-04-15T16:58:15.324Z,9.05
2023-04-15T17:00:42.247Z,9.32
2023-04-15T17:03:12.100Z,14.85
2023-04-15T17:05:39.045Z,9.98
2023-04-15T17:08:06.180Z,10.00
2023-04-15T17:10:33.017Z,7.68
2023-04-15T17:13:07.595Z,6.90
2023-04-15T17:15:35.126Z,6.93
2023-04-15T17:18:02.225Z,8.75
2023-04-15T17:20:29.890Z,16.67
2023-04-15T17:22:56.668Z,9.65
2023-04-15T17:25:23.485Z,6.97
2023-04-15T17:27:50.296Z,6.63
2023-04-15T17:30:17.033Z,9.90
2023-04-15T17:32:43.874Z,7.65
2023-04-15T17:35:10.783Z,9.65
2023-04-15T17:37:37.866Z,4.75
2023-04-15T17:40:08.035Z,8.27
2023-04-15T17:42:35.530Z,11.40
2023-04-15T17:45:02.172Z,14.70
2023-04-15T17:47:28.936Z,10.77
2023-04-15T17:49:55.853Z,15.63
2023-04-15T17:52:22.777Z,9.93
2023-04-15T17:54:49.462Z,9.82
2023-04-15T17:57:16.590Z,12.43
2023-04-15T17:59:44.970Z,10.40
2023-04-15T18:02:11.890Z,10.48
2023-04-15T18:04:39.334Z,9.02
2023-04-15T18:07:06.267Z,9.93
2023-04-15T18:09:33.040Z,15.32
2023-04-15T18:11:59.770Z,10.00
2023-04-15T18:14:34.139Z,11.95
2023-04-15T18:17:05.287Z,11.90
2023-04-15T18:19:45.971Z,13.85
2023-04-15T18:22:12.750Z,8.35
2023-04-15T18:24:39.579Z,5.10
2023-04-15T18:27:06.317Z,7.07
2023-04-15T18:29:34.743Z,3.65
2023-04-15T18:32:02.960Z,6.65
2023-04-15T18:34:30.476Z,6.80
2023-04-15T18:36:58.145Z,6.07
2023-04-15T18:39:27.246Z,7.68
2023-04-15T18:41:54.308Z,8.82
2023-04-15T18:44:21.225Z,10.05
2023-04-15T18:46:48.944Z,8.77
2023-04-15T18:49:16.026Z,8.95
2023-04-15T18:51:42.942Z,8.30
2023-04-15T18:54:09.728Z,11.35
2023-04-15T18:56:36.533Z,7.75
2023-04-15T18:59:28.012Z,7.15
2023-04-15T19:01:51.773Z,8.57
2023-04-15T19:04:18.819Z,7.30
2023-04-15T19:06:47.293Z,9.32
2023-04-15T19:09:15.025Z,9.18
2023-04-15T19:11:41.857Z,5.90
2023-04-15T19:14:08.728Z,7.18
2023-04-15T19:16:35.985Z,5.43
2023-04-15T19:19:03.130Z,8.75
2023-04-15T19:21:33.637Z,9.70
2023-04-15T19:24:00.990Z,8.48
2023-04-15T19:26:28.039Z,10.60
2023-04-15T19:28:56.479Z,5.90
2023-04-15T19:31:23.434Z,10.07
2023-04-15T19:33:58.147Z,8.02
2023-04-15T19:36:29.064Z,13.77
2023-04-15T19:38:56.250Z,15.00
2023-04-15T19:41:23.309Z,14.15
2023-04-15T19:43:51.499Z,16.13
2023-04-15T19:46:18.725Z,12.05
2023-04-15T19:48:45.599Z,11.82
2023-04-15T19:51:12.507Z,13.50
2023-04-15T19:53:40.680Z,11.15
2023-04-15T19:56:07.544Z,13.32
2023-04-15T19:58:34.455Z,7.10
2023-04-15T20:01:02.338Z,7.65
2023-04-15T20:03:29.353Z,10.43
2023-04-15T20:05:56.354Z,8.80
2023-04-15T20:08:23.111Z,11.73
2023-04-15T20:10:50.049Z,10.55
2023-04-15T20:13:17.053Z,14.32
2023-04-15T20:15:44.939Z,20.33
2023-04-15T20:18:11.624Z,10.77
2023-04-15T20:20:39.664Z,14.95
2023-04-15T20:23:07.112Z,9.60
2023-04-15T20:25:34.056Z,10.13
2023-04-15T20:28:01.147Z,8.77
2023-04-15T20:30:29.121Z,11.52
2023-04-15T20:32:55.982Z,11.68
2023-04-15T20:35:22.987Z,15.60
2023-04-15T20:37:49.690Z,10.68
2023-04-15T20:40:16.417Z,12.15
2023-04-15T20:42:43.673Z,9.40
2023-04-15T20:45:10.801Z,11.63
2023-04-15T20:47:37.699Z,7.00
2023-04-15T20:50:04.710Z,13.52
2023-04-15T20:52:31.404Z,9.50
2023-04-15T20:54:58.072Z,11.13
2023-04-15T20:57:24.777Z,11.80
2023-04-15T20:59:51.617Z,14.68
2023-04-15T21:02:18.514Z,8.45
2023-04-15T21:04:47.017Z,7.60
2023-04-15T21:07:13.690Z,16.52
2023-04-15T21:09:41.478Z,8.77
2023-04-15T21:12:08.984Z,12.77
2023-04-15T21:14:35.911Z,8.40
2023-04-15T21:17:11.096Z,7.55
2023-04-15T21:19:38.583Z,8.90
2023-04-15T21:22:08.492Z,13.30
2023-04-15T21:24:35.442Z,12.52
2023-04-15T21:27:02.392Z,13.27
2023-04-15T21:29:29.467Z,14.05
2023-04-15T21:31:56.234Z,13.55
2023-04-15T21:34:23.083Z,13.15
2023-04-15T21:36:49.807Z,5.35
2023-04-15T21:39:17.133Z,8.18
2023-04-15T21:41:43.864Z,9.98
2023-04-15T21:44:12.063Z,8.00
2023-04-15T21:46:39.930Z,12.55
2023-04-15T21:49:07.107Z,7.53
2023-04-15T21:51:34.025Z,7.13
2023-04-15T21:54:00.752Z,5.60
2023-04-15T21:56:30.441Z,11.00
2023-04-15T21:58:58.040Z,9.55
2023-04-15T22:01:26.500Z,8.15
2023-04-15T22:03:53.543Z,8.55
2023-04-15T22:06:20.522Z,8.27
2023-04-15T22:08:56.237Z,6.78
2023-04-15T22:11:27.457Z,6.13
2023-04-15T22:13:54.948Z,6.63
2023-04-15T22:16:21.909Z,10.15
2023-04-15T22:18:49.013Z,9.52
2023-04-15T22:21:15.774Z,8.85
2023-04-15T22:23:45.674Z,8.82
2023-04-15T22:26:12.418Z,4.82
2023-04-15T22:28:39.139Z,10.13
2023-04-15T22:31:05.902Z,8.73
2023-04-15T22:33:32.625Z,12.32
2023-04-15T22:35:59.342Z,10.07
2023-04-15T22:38:25.999Z,7.53
2023-04-15T22:40:55.801Z,9.00
2023-04-15T22:43:22.615Z,12.93
2023-04-15T22:45:50.476Z,11.20
2023-04-15T22:48:18.408Z,13.20
2023-04-15T22:50:45.354Z,8.52
2023-04-15T22:53:12.003Z,11.45
2023-04-15T22:55:38.763Z,7.95
2023-04-15T22:58:05.541Z,12.05
2023-04-15T23:00:32.226Z,13.85
2023-04-15T23:02:59.171Z,17.10
2023-04-15T23:05:25.948Z,13.48
2023-04-15T23:07:52.721Z,9.57
2023-04-15T23:10:19.621Z,13.32
2023-04-15T23:12:46.841Z,11.10
2023-04-15T23:15:13.595Z,9.18
2023-04-15T23:17:42.063Z,10.60
2023-04-15T23:20:11.238Z,11.40
2023-04-15T23:22:38.243Z,11.63
2023-04-15T23:25:05.750Z,14.23
2023-04-15T23:27:32.488Z,14.00
2023-04-15T23:29:59.144Z,18.27
2023-04-15T23:32:27.246Z,10.60
2023-04-15T23:34:54.115Z,8.95
2023-04-15T23:37:20.912Z,13.38
2023-04-15T23:39:47.574Z,7.72
2023-04-15T23:42:14.224Z,15.77
2023-04-15T23:44:40.870Z,14.38
2023-04-15T23:47:07.554Z,12.20
2023-04-15T23:49:34.373Z,14.40
2023-04-15T23:52:01.129Z,10.77
2023-04-15T23:54:27.840Z,15.25
2023-04-15T23:56:54.742Z,16.42
2023-04-15T23:59:21.631Z,9.85
